Monday, September 25, 2017, 5:54 AM EDT
Back to Local

KMTP, Montauk Airport

Location: Montauk, NY, United States Lat: 41.067
Local Time: 5:54 AM EDT ( 9:54 GMT) Lon: -71.917
Time Zone: US/Eastern Elev: 6 ft

Show me the last for .
Show Decoded

2017-09-25 04:54 METAR KMTP 250854Z AUTO 00000KT 17/17 A3004 RMK AO1 SLP173 T01720167 55003 =
2017-09-25 03:54 METAR KMTP 250754Z AUTO 00000KT 18/18 A3004 RMK AO1 SLP173 T01830178 =
2017-09-25 02:54 METAR KMTP 250654Z AUTO 00000KT 17/16 A3005 RMK AO1 SLP174 T01720161 =
2017-09-25 01:54 METAR KMTP 250554Z AUTO 00000KT 18/17 A3005 RMK AO1 SLP177 T01780167 10206 20178
                 58005 =
2017-09-25 00:54 METAR KMTP 250454Z AUTO 00000KT 18/18 A3006 RMK AO1 SLP178 T01830178 402670156 =
2017-09-24 23:54 METAR KMTP 250354Z AUTO 00000KT 19/18 A3007 RMK AO1 SLP182 T01890183 =
2017-09-24 22:54 METAR KMTP 250254Z AUTO 00000KT 19/18 A3007 RMK AO1 SLP182 T01940183 51005 =
2017-09-24 21:54 METAR KMTP 250154Z AUTO 00000KT 18/17 A3007 RMK AO1 SLP181 T01830172 =
2017-09-24 20:54 METAR KMTP 250054Z AUTO 00000KT 20/18 A3006 RMK AO1 SLP179 T02000183 =
2017-09-24 19:54 METAR KMTP 242354Z AUTO 00000KT 21/19 A3005 RMK AO1 SLP177 T02060189 10261 20206
                 53005 =
2017-09-24 18:54 METAR KMTP 242254Z AUTO 00000KT 22/17 A3005 RMK AO1 SLP174 T02170172 =
2017-09-24 17:54 METAR KMTP 242154Z AUTO 00000KT 24/16 A3004 RMK AO1 SLP171 T02390161 =
2017-09-24 16:54 METAR KMTP 242054Z AUTO 18004KT 25/14 A3004 RMK AO1 SLP171 T02500144 56009 =
2017-09-24 15:54 METAR KMTP 241954Z AUTO VRB03KT 26/16 A3005 RMK AO1 SLP174 T02610161 =
2017-09-24 14:54 METAR KMTP 241854Z AUTO VRB04KT 26/16 A3005 RMK AO1 SLP177 T02560156 =
2017-09-24 13:54 METAR KMTP 241754Z AUTO VRB03KT 25/17 A3006 RMK AO1 SLP180 T02500167 10267 20194
                 58001 =
2017-09-24 12:54 METAR KMTP 241654Z AUTO VRB03KT 25/16 A3007 RMK AO1 SLP182 T02500156 =
2017-09-24 11:54 METAR KMTP 241554Z AUTO VRB03KT 26/16 A3007 RMK AO1 SLP181 T02610161 =
2017-09-24 10:54 METAR KMTP 241454Z AUTO 02005KT 24/17 A3007 RMK AO1 SLP181 T02440172 58003 =
2017-09-24 09:54 METAR KMTP 241354Z AUTO 02004KT 22/18 A3007 RMK AO1 SLP183 T02170178 =
2017-09-24 08:54 METAR KMTP 241254Z AUTO 36005KT 21/18 A3008 RMK AO1 SLP185 T02060178 =
2017-09-24 07:54 METAR KMTP 241154Z AUTO 35003KT 20/19 A3007 RMK AO1 SLP184 T02000189 10200 20161
                 53008 =
2017-09-24 06:54 METAR KMTP 241054Z AUTO 00000KT 17/17 A3006 RMK AO1 SLP180 T01670167 =

Support USWX by starting your Amazon purchase here.